createdAt,value
2023-01-27T00:01:38.420Z,9.30
2023-01-27T00:04:08.277Z,9.30
2023-01-27T00:06:36.701Z,9.29
2023-01-27T00:09:05.486Z,9.28
2023-01-27T00:11:51.603Z,9.29
2023-01-27T00:14:20.022Z,9.27
2023-01-27T00:16:48.403Z,9.28
2023-01-27T00:19:19.968Z,9.29
2023-01-27T00:22:06.601Z,9.29
2023-01-27T00:24:38.229Z,9.28
2023-01-27T00:27:09.370Z,9.28
2023-01-27T00:29:40.731Z,9.27
2023-01-27T00:32:26.790Z,9.27
2023-01-27T00:34:57.144Z,9.27
2023-01-27T00:37:25.727Z,9.29
2023-01-27T00:39:54.987Z,9.28
2023-01-27T00:42:23.587Z,9.28
2023-01-27T00:45:10.038Z,9.27
2023-01-27T00:47:38.539Z,9.27
2023-01-27T00:50:10.474Z,9.26
2023-01-27T00:52:39.458Z,9.25
2023-01-27T00:55:10.840Z,9.27
2023-01-27T00:57:39.796Z,9.25
2023-01-27T01:00:12.046Z,9.26
2023-01-27T01:02:41.065Z,9.26
2023-01-27T01:05:11.559Z,9.27
2023-01-27T01:07:40.293Z,9.28
2023-01-27T01:10:12.015Z,9.27
2023-01-27T01:12:41.016Z,9.26
2023-01-27T01:15:10.629Z,9.25
2023-01-27T01:17:39.323Z,9.20
2023-01-27T01:20:11.262Z,9.19
2023-01-27T01:22:39.875Z,9.19
2023-01-27T01:25:09.504Z,9.20
2023-01-27T01:27:38.136Z,9.24
2023-01-27T01:30:09.483Z,9.27
2023-01-27T01:32:37.952Z,9.30
2023-01-27T01:35:07.549Z,9.29
2023-01-27T01:37:37.443Z,9.30
2023-01-27T01:40:08.452Z,9.32
2023-01-27T01:42:58.028Z,9.32
2023-01-27T01:45:52.020Z,9.31
2023-01-27T01:48:31.546Z,9.33
2023-01-27T01:51:08.419Z,9.31
2023-01-27T01:53:43.106Z,9.29
2023-01-27T01:56:17.862Z,9.28
2023-01-27T01:58:48.110Z,9.27
2023-01-27T02:01:19.042Z,9.26
2023-01-27T02:03:53.562Z,9.22
2023-01-27T02:06:22.636Z,9.21
2023-01-27T02:08:53.666Z,9.20
2023-01-27T02:11:23.777Z,9.18
2023-01-27T02:13:52.714Z,9.16
2023-01-27T02:16:21.305Z,9.15
2023-01-27T02:18:50.521Z,9.15
2023-01-27T02:21:19.580Z,9.13
2023-01-27T02:24:02.528Z,9.11
2023-01-27T02:26:36.530Z,9.09
2023-01-27T02:29:08.259Z,9.07
2023-01-27T02:31:37.080Z,9.04
2023-01-27T02:34:09.885Z,9.02
2023-01-27T02:36:43.370Z,9.01
2023-01-27T02:39:16.119Z,9.01
2023-01-27T02:41:50.299Z,9.00
2023-01-27T02:44:18.873Z,8.99
2023-01-27T02:46:47.417Z,8.99
2023-01-27T02:49:17.530Z,8.96
2023-01-27T02:51:46.650Z,8.94
2023-01-27T02:54:15.369Z,8.90
2023-01-27T02:56:43.754Z,8.87
2023-01-27T02:59:16.970Z,8.85
2023-01-27T03:01:45.729Z,8.83
2023-01-27T03:04:15.846Z,8.80
2023-01-27T03:06:44.349Z,8.77
2023-01-27T03:09:12.809Z,8.76
2023-01-27T03:11:58.837Z,8.74
2023-01-27T03:14:46.261Z,8.73
2023-01-27T03:17:33.157Z,8.72
2023-01-27T03:20:01.524Z,8.71
2023-01-27T03:22:31.474Z,8.72
2023-01-27T03:25:01.146Z,8.74
2023-01-27T03:27:29.969Z,8.74
2023-01-27T03:30:20.917Z,8.76
2023-01-27T03:32:59.175Z,8.77
2023-01-27T03:35:49.378Z,8.80
2023-01-27T03:38:40.240Z,8.84
2023-01-27T03:41:26.411Z,8.84
2023-01-27T03:44:12.501Z,8.85
2023-01-27T03:46:42.870Z,8.87
2023-01-27T03:49:11.213Z,8.92
2023-01-27T03:51:39.940Z,8.90
2023-01-27T03:54:09.831Z,8.94
2023-01-27T03:56:38.267Z,8.95
2023-01-27T03:59:06.774Z,8.96
2023-01-27T04:01:35.614Z,8.97
2023-01-27T04:04:23.011Z,8.97
2023-01-27T04:06:55.214Z,8.95
2023-01-27T04:09:26.885Z,8.92
2023-01-27T04:11:55.859Z,8.90
2023-01-27T04:14:27.078Z,8.88
2023-01-27T04:16:58.306Z,8.87
2023-01-27T04:19:29.145Z,8.90
2023-01-27T04:21:58.974Z,8.91
2023-01-27T04:24:27.954Z,8.89
2023-01-27T04:26:59.114Z,8.91
2023-01-27T04:29:30.791Z,8.90
2023-01-27T04:31:59.560Z,8.90
2023-01-27T04:34:30.541Z,8.90
2023-01-27T04:36:59.260Z,8.89
2023-01-27T04:39:27.925Z,8.87
2023-01-27T04:41:57.292Z,8.89
2023-01-27T04:44:26.266Z,8.90
2023-01-27T04:46:55.868Z,8.90
2023-01-27T04:49:26.583Z,8.90
2023-01-27T04:51:57.093Z,8.91
2023-01-27T04:54:25.543Z,8.92
2023-01-27T04:56:59.961Z,8.94
2023-01-27T04:59:29.276Z,8.94
2023-01-27T05:01:57.881Z,8.98
2023-01-27T05:04:27.427Z,8.99
2023-01-27T05:06:57.450Z,9.00
2023-01-27T05:09:26.469Z,9.02
2023-01-27T05:11:54.844Z,9.03
2023-01-27T05:14:24.434Z,9.06
2023-01-27T05:16:52.909Z,9.08
2023-01-27T05:19:21.595Z,9.07
2023-01-27T05:21:50.094Z,9.06
2023-01-27T05:24:19.850Z,9.08
2023-01-27T05:26:48.642Z,9.11
2023-01-27T05:29:17.070Z,9.11
2023-01-27T05:31:45.617Z,9.10
2023-01-27T05:34:14.271Z,9.10
2023-01-27T05:36:42.975Z,9.10
2023-01-27T05:39:12.583Z,9.11
2023-01-27T05:41:42.479Z,9.10
2023-01-27T05:44:12.944Z,9.13
2023-01-27T05:46:42.487Z,9.14
2023-01-27T05:49:11.098Z,9.15
2023-01-27T05:51:41.046Z,9.15
2023-01-27T05:54:10.110Z,9.17
2023-01-27T05:56:39.230Z,9.16
2023-01-27T08:13:45.777Z,9.10
2023-01-27T08:16:16.894Z,9.14
2023-01-27T08:18:45.359Z,9.20
2023-01-27T08:21:14.796Z,9.27
2023-01-27T08:23:43.265Z,9.31
2023-01-27T08:26:12.006Z,9.35
2023-01-27T08:28:42.043Z,9.39
2023-01-27T08:31:16.132Z,9.42
2023-01-27T08:33:46.528Z,9.46
2023-01-27T08:36:18.201Z,9.49
2023-01-27T08:38:49.267Z,9.51
2023-01-27T08:41:20.389Z,9.50
2023-01-27T08:43:48.916Z,9.52
2023-01-27T08:46:19.455Z,9.52
2023-01-27T08:48:49.087Z,9.53
2023-01-27T08:51:17.940Z,9.54
2023-01-27T08:53:46.344Z,9.56
2023-01-27T08:56:16.418Z,9.58
2023-01-27T08:58:47.315Z,9.57
2023-01-27T09:01:18.157Z,9.59
2023-01-27T09:03:46.725Z,9.60
2023-01-27T09:06:16.004Z,9.61
2023-01-27T09:09:06.081Z,9.63
2023-01-27T09:11:35.342Z,9.64
2023-01-27T09:14:04.537Z,9.63
2023-01-27T09:16:35.347Z,9.64
2023-01-27T09:19:04.427Z,9.63
2023-01-27T09:21:33.243Z,9.65
2023-01-27T09:24:01.768Z,9.65
2023-01-27T09:26:30.491Z,9.65
2023-01-27T09:28:59.576Z,9.67
2023-01-27T09:31:28.375Z,9.66
2023-01-27T09:33:58.259Z,9.66
2023-01-27T09:36:27.263Z,9.67
2023-01-27T09:38:59.271Z,9.68
2023-01-27T09:42:06.870Z,9.68
2023-01-27T09:45:21.710Z,9.68
2023-01-27T09:48:08.443Z,9.67
2023-01-27T09:50:45.830Z,9.70
2023-01-27T09:53:57.232Z,9.72
2023-01-27T09:56:47.931Z,9.74
2023-01-27T09:59:36.908Z,9.75
2023-01-27T10:02:22.429Z,9.75
2023-01-27T10:05:05.638Z,9.77
2023-01-27T10:08:20.360Z,9.78
2023-01-27T10:11:06.071Z,9.78
2023-01-27T10:13:44.623Z,9.77
2023-01-27T10:16:29.563Z,9.78
2023-01-27T10:19:23.485Z,9.78
2023-01-27T10:22:02.771Z,9.79
2023-01-27T10:24:48.925Z,9.81
2023-01-27T10:27:22.236Z,9.82
2023-01-27T10:29:58.452Z,9.83
2023-01-27T10:32:30.309Z,9.86
2023-01-27T10:35:17.056Z,9.89
2023-01-27T10:37:58.836Z,9.88
2023-01-27T10:40:40.772Z,9.89
2023-01-27T10:43:16.817Z,9.93
2023-01-27T10:45:55.146Z,9.94
2023-01-27T10:48:43.733Z,9.96
2023-01-27T10:51:15.967Z,9.95
2023-01-27T10:53:57.481Z,9.98
2023-01-27T10:56:35.894Z,10.01
2023-01-27T10:59:12.516Z,10.02
2023-01-27T11:01:47.655Z,10.05
2023-01-27T11:04:22.120Z,10.05
2023-01-27T11:06:55.202Z,10.05
2023-01-27T11:09:30.621Z,10.05
2023-01-27T11:12:05.305Z,10.04
2023-01-27T11:14:42.797Z,10.05
2023-01-27T11:17:21.437Z,10.05
2023-01-27T11:19:59.564Z,10.04
2023-01-27T11:22:36.855Z,10.01
2023-01-27T11:25:18.343Z,10.02
2023-01-27T11:28:03.747Z,10.05
2023-01-27T11:30:38.354Z,10.05
2023-01-27T11:33:19.053Z,10.06
2023-01-27T11:35:49.168Z,10.07
2023-01-27T11:38:22.326Z,10.06
2023-01-27T11:40:53.174Z,10.05
2023-01-27T11:43:27.215Z,10.04
2023-01-27T11:46:03.058Z,10.05
2023-01-27T11:48:41.181Z,10.07
2023-01-27T11:51:21.817Z,10.06
2023-01-27T11:54:03.704Z,10.06
2023-01-27T11:56:34.963Z,10.05
2023-01-27T11:59:09.135Z,10.07
2023-01-27T12:01:47.865Z,10.08
2023-01-27T12:04:25.285Z,10.07
2023-01-27T12:07:00.650Z,10.04
2023-01-27T12:09:37.815Z,10.01
2023-01-27T12:12:26.580Z,10.02
2023-01-27T12:14:58.688Z,10.04
2023-01-27T12:17:32.793Z,10.05
2023-01-27T12:20:07.492Z,10.07
2023-01-27T12:22:40.743Z,10.07
2023-01-27T12:25:19.778Z,10.08
2023-01-27T12:27:54.098Z,10.09
2023-01-27T12:30:28.322Z,10.09
2023-01-27T12:32:59.546Z,10.07
2023-01-27T12:35:33.801Z,10.07
2023-01-27T12:38:07.052Z,10.09
2023-01-27T12:40:36.268Z,10.11
2023-01-27T12:43:13.026Z,10.12
2023-01-27T12:45:44.283Z,10.12
2023-01-27T12:48:22.344Z,10.16
2023-01-27T12:51:06.602Z,10.17
2023-01-27T12:53:35.103Z,10.17
2023-01-27T12:56:13.347Z,10.18
2023-01-27T12:58:44.976Z,10.18
2023-01-27T13:01:31.010Z,10.22
2023-01-27T13:04:02.500Z,10.25
2023-01-27T13:06:43.555Z,10.27
2023-01-27T13:09:33.306Z,10.28
2023-01-27T13:12:06.576Z,10.29
2023-01-27T13:14:41.502Z,10.31
2023-01-27T13:17:31.053Z,10.32
2023-01-27T13:20:04.859Z,10.31
2023-01-27T13:22:42.848Z,10.32
2023-01-27T13:25:20.791Z,10.32
2023-01-27T13:27:52.183Z,10.32
2023-01-27T13:30:28.947Z,10.34
2023-01-27T13:33:05.883Z,10.33
2023-01-27T13:35:38.772Z,10.36
2023-01-27T13:38:17.349Z,10.35
2023-01-27T13:40:47.906Z,10.31
2023-01-27T13:43:23.683Z,10.30
2023-01-27T13:45:56.618Z,10.29
2023-01-27T13:48:33.481Z,10.27
2023-01-27T13:51:09.901Z,10.24
2023-01-27T13:53:39.858Z,10.21
2023-01-27T13:56:23.709Z,10.21
2023-01-27T13:59:02.943Z,10.19
2023-01-27T14:01:46.765Z,10.18
2023-01-27T14:04:42.917Z,10.17
2023-01-27T14:07:22.984Z,10.15
2023-01-27T14:10:08.222Z,10.15
2023-01-27T14:12:57.999Z,10.14
2023-01-27T14:15:34.143Z,10.11
2023-01-27T14:18:15.519Z,10.13
2023-01-27T14:21:04.624Z,10.13
2023-01-27T14:23:48.176Z,10.12
2023-01-27T14:26:35.991Z,10.12
2023-01-27T14:29:16.577Z,10.12
2023-01-27T14:31:54.725Z,10.15
2023-01-27T14:34:55.318Z,10.16
2023-01-27T14:37:31.689Z,10.17
2023-01-27T14:40:18.334Z,10.19
2023-01-27T14:43:06.838Z,10.18
2023-01-27T14:45:38.881Z,10.18
2023-01-27T14:48:23.704Z,10.20
2023-01-27T14:51:07.084Z,10.20
2023-01-27T14:53:55.966Z,10.18
2023-01-27T14:56:38.283Z,10.17
2023-01-27T14:59:31.051Z,10.17
2023-01-27T15:02:08.732Z,10.18
2023-01-27T15:04:42.274Z,10.18
2023-01-27T15:07:17.964Z,10.19
2023-01-27T15:10:19.690Z,10.19
2023-01-27T15:13:17.674Z,10.22
2023-01-27T15:16:25.618Z,10.22
2023-01-27T15:19:24.911Z,10.22
2023-01-27T15:22:44.356Z,10.21
2023-01-27T15:25:34.614Z,10.23
2023-01-27T15:28:05.863Z,10.23
2023-01-27T15:30:38.795Z,10.24
2023-01-27T15:33:48.066Z,10.23
2023-01-27T15:36:34.658Z,10.20
2023-01-27T15:39:25.949Z,10.17
2023-01-27T15:42:13.232Z,10.17
2023-01-27T15:45:01.827Z,10.15
2023-01-27T15:47:35.175Z,10.14
2023-01-27T15:50:20.844Z,10.13
2023-01-27T15:52:51.021Z,10.12
2023-01-27T15:55:29.346Z,10.13
2023-01-27T15:58:09.115Z,10.11
2023-01-27T16:00:40.500Z,10.09
2023-01-27T16:03:28.540Z,10.11
2023-01-27T16:06:01.910Z,10.11
2023-01-27T16:08:34.122Z,10.15
2023-01-27T16:11:37.538Z,10.16
2023-01-27T16:14:39.870Z,10.17
2023-01-27T16:17:26.568Z,10.19
2023-01-27T16:20:15.607Z,10.19
2023-01-27T16:22:45.703Z,10.19
2023-01-27T16:25:26.289Z,10.20
2023-01-27T16:28:01.920Z,10.18
2023-01-27T16:30:37.166Z,10.19
2023-01-27T16:33:09.951Z,10.19
2023-01-27T16:35:47.276Z,10.20
2023-01-27T16:38:27.077Z,10.21
2023-01-27T16:41:01.519Z,10.19
2023-01-27T16:43:35.482Z,10.17
2023-01-27T16:46:05.481Z,10.15
2023-01-27T16:48:40.510Z,10.15
2023-01-27T16:51:15.477Z,10.15
2023-01-27T16:53:48.132Z,10.14
2023-01-27T16:56:25.853Z,10.13
2023-01-27T16:59:03.067Z,10.09
2023-01-27T17:01:42.800Z,10.07
2023-01-27T17:04:20.715Z,10.05
2023-01-27T17:06:50.222Z,10.04
2023-01-27T17:09:24.977Z,10.02
2023-01-27T17:11:55.525Z,10.02
2023-01-27T17:14:32.123Z,10.02
2023-01-27T17:17:05.331Z,10.00
2023-01-27T17:19:36.472Z,10.03
2023-01-27T17:22:10.539Z,10.03
2023-01-27T17:24:45.204Z,10.03
2023-01-27T17:27:25.915Z,10.03
2023-01-27T17:30:02.292Z,10.02
2023-01-27T17:32:36.815Z,10.02
2023-01-27T17:35:09.758Z,10.05
2023-01-27T17:37:44.106Z,10.06
2023-01-27T17:40:18.199Z,10.07
2023-01-27T17:42:47.568Z,10.07
2023-01-27T17:45:25.573Z,10.07
2023-01-27T17:47:55.571Z,10.08
2023-01-27T17:50:27.253Z,10.08
2023-01-27T17:52:57.179Z,10.07
2023-01-27T17:55:28.152Z,10.06
2023-01-27T17:58:07.179Z,10.06
2023-01-27T18:00:40.240Z,10.06
2023-01-27T18:03:15.652Z,10.06
2023-01-27T18:05:46.582Z,10.05
2023-01-27T18:08:15.109Z,10.06
2023-01-27T18:10:45.159Z,10.04
2023-01-27T18:13:37.896Z,10.05
2023-01-27T18:16:16.505Z,10.06
2023-01-27T18:18:47.770Z,10.04
2023-01-27T18:21:19.456Z,10.02
2023-01-27T18:23:51.272Z,10.00
2023-01-27T18:26:24.448Z,9.99
2023-01-27T18:28:57.404Z,9.96
2023-01-27T18:31:30.361Z,9.94
2023-01-27T18:34:13.565Z,9.93
2023-01-27T18:36:54.722Z,9.90
2023-01-27T18:39:39.304Z,9.88
2023-01-27T18:42:16.020Z,9.86
2023-01-27T18:44:44.963Z,9.82
2023-01-27T18:47:31.927Z,9.86
2023-01-27T18:50:19.464Z,9.87
2023-01-27T18:52:48.609Z,9.88
2023-01-27T18:55:20.300Z,9.93
2023-01-27T18:57:50.714Z,9.95
2023-01-27T19:00:22.676Z,9.96
2023-01-27T19:02:54.325Z,9.97
2023-01-27T19:05:27.460Z,9.99
2023-01-27T19:07:57.664Z,9.95
2023-01-27T19:10:29.491Z,9.92
2023-01-27T19:13:00.775Z,9.90
2023-01-27T19:15:32.106Z,9.90
2023-01-27T19:18:10.506Z,9.90
2023-01-27T19:20:40.688Z,9.90
2023-01-27T19:23:14.243Z,9.91
2023-01-27T19:25:43.401Z,9.90
2023-01-27T19:28:17.893Z,9.91
2023-01-27T19:30:47.301Z,9.91
2023-01-27T19:33:21.709Z,9.91
2023-01-27T19:35:55.651Z,9.91
2023-01-27T19:38:24.989Z,9.90
2023-01-27T19:40:53.880Z,9.87
2023-01-27T19:43:22.751Z,9.83
2023-01-27T19:45:52.900Z,9.81
2023-01-27T19:48:24.187Z,9.82
2023-01-27T19:50:54.750Z,9.83
2023-01-27T19:53:23.329Z,9.82
2023-01-27T19:55:54.260Z,9.82
2023-01-27T19:58:26.082Z,9.82
2023-01-27T20:00:55.849Z,9.86
2023-01-27T20:03:25.003Z,9.88
2023-01-27T20:05:54.832Z,9.89
2023-01-27T20:08:23.999Z,9.90
2023-01-27T20:10:52.839Z,9.89
2023-01-27T20:13:22.151Z,9.91
2023-01-27T20:15:50.800Z,9.89
2023-01-27T20:18:21.478Z,9.88
2023-01-27T20:20:51.306Z,9.84
2023-01-27T20:23:21.481Z,9.86
2023-01-27T20:25:50.064Z,9.86
2023-01-27T20:28:18.420Z,9.89
2023-01-27T20:30:46.981Z,9.91
2023-01-27T20:33:15.529Z,9.92
2023-01-27T20:35:44.040Z,9.95
2023-01-27T20:38:12.429Z,9.97
2023-01-27T20:40:42.544Z,10.02
2023-01-27T20:43:11.057Z,10.04
2023-01-27T20:45:40.863Z,10.05
2023-01-27T20:48:12.406Z,10.04
2023-01-27T20:50:40.842Z,10.04
2023-01-27T20:53:09.521Z,10.05
2023-01-27T20:55:38.384Z,10.07
2023-01-27T20:58:08.381Z,10.09
2023-01-27T21:00:36.810Z,10.11
2023-01-27T21:03:05.541Z,10.13
2023-01-27T21:05:34.415Z,10.16
2023-01-27T21:08:02.836Z,10.14
2023-01-27T21:10:31.367Z,10.14
2023-01-27T21:12:59.871Z,10.13
2023-01-27T21:15:29.687Z,10.12
2023-01-27T21:17:58.249Z,10.10
2023-01-27T21:20:27.250Z,10.11
2023-01-27T21:22:55.816Z,10.11
2023-01-27T21:25:24.345Z,10.10
2023-01-27T21:27:53.090Z,10.09
2023-01-27T21:30:21.645Z,10.07
2023-01-27T21:32:51.696Z,10.05
2023-01-27T21:35:20.307Z,10.03
2023-01-27T21:37:49.138Z,10.03
2023-01-27T21:40:18.115Z,10.01
2023-01-27T21:43:04.200Z,10.01
2023-01-27T21:45:32.654Z,9.98
2023-01-27T21:48:02.895Z,9.99
2023-01-27T21:50:31.417Z,10.01
2023-01-27T21:53:00.198Z,10.03
2023-01-27T21:55:31.181Z,10.02
2023-01-27T21:57:59.602Z,10.01
2023-01-27T22:00:29.974Z,10.01
2023-01-27T22:03:01.967Z,10.01
2023-01-27T22:05:32.842Z,10.03
2023-01-27T22:08:02.167Z,10.04
2023-01-27T22:10:31.816Z,10.07
2023-01-27T22:13:03.578Z,10.05
2023-01-27T22:15:32.971Z,10.03
2023-01-27T22:18:03.245Z,10.01
2023-01-27T22:20:31.634Z,9.99
2023-01-27T22:23:00.224Z,9.98
2023-01-27T22:25:28.850Z,10.00
2023-01-27T22:27:57.567Z,9.99
2023-01-27T22:30:26.016Z,9.99
2023-01-27T22:32:54.480Z,10.02
2023-01-27T22:35:24.465Z,10.03
2023-01-27T22:37:53.181Z,10.01
2023-01-27T22:40:21.737Z,9.98
2023-01-27T22:42:50.822Z,9.95
2023-01-27T22:45:19.440Z,9.96
2023-01-27T22:47:49.463Z,9.92
2023-01-27T22:50:19.060Z,9.93
2023-01-27T22:52:48.853Z,9.92
2023-01-27T22:55:18.046Z,9.92
2023-01-27T22:57:47.866Z,9.90
2023-01-27T23:00:17.884Z,9.88
2023-01-27T23:02:46.499Z,9.87
2023-01-27T23:05:15.231Z,9.87
2023-01-27T23:07:44.096Z,9.85
2023-01-27T23:10:14.282Z,9.81
2023-01-27T23:12:43.007Z,9.77
2023-01-27T23:15:13.376Z,9.78
2023-01-27T23:17:41.985Z,9.78
2023-01-27T23:20:12.530Z,9.78
2023-01-27T23:22:41.155Z,9.78
2023-01-27T23:25:10.754Z,9.78
2023-01-27T23:27:42.169Z,9.79
2023-01-27T23:30:12.865Z,9.80
2023-01-27T23:32:41.385Z,9.81
2023-01-27T23:35:10.696Z,9.81
2023-01-27T23:37:39.671Z,9.84
2023-01-27T23:40:10.069Z,9.89
2023-01-27T23:42:40.071Z,9.91
2023-01-27T23:45:10.047Z,9.90
2023-01-27T23:47:38.738Z,9.88
2023-01-27T23:50:08.103Z,9.87
2023-01-27T23:52:36.842Z,9.87
2023-01-27T23:55:06.150Z,9.89
2023-01-27T23:57:34.955Z,9.91
